createdAt,value
2022-09-07T00:01:36.198Z,9.45
2022-09-07T00:04:03.901Z,8.70
2022-09-07T00:06:34.499Z,7.90
2022-09-07T00:09:02.318Z,7.53
2022-09-07T00:11:30.013Z,7.60
2022-09-07T00:13:57.385Z,8.18
2022-09-07T00:16:26.918Z,8.00
2022-09-07T00:18:55.710Z,8.65
2022-09-07T00:21:23.113Z,8.15
2022-09-07T00:23:50.617Z,7.93
2022-09-07T00:26:22.718Z,7.65
2022-09-07T00:28:50.162Z,7.95
2022-09-07T00:31:20.271Z,8.38
2022-09-07T00:33:49.099Z,8.27
2022-09-07T00:36:17.211Z,8.55
2022-09-07T00:38:45.108Z,8.15
2022-09-07T00:41:12.606Z,8.35
2022-09-07T00:43:42.127Z,7.78
2022-09-07T00:46:32.753Z,8.73
2022-09-07T00:49:09.182Z,7.75
2022-09-07T00:51:41.321Z,8.27
2022-09-07T00:54:14.432Z,7.80
2022-09-07T00:56:42.298Z,8.05
2022-09-07T00:59:09.901Z,7.70
2022-09-07T01:01:37.406Z,8.18
2022-09-07T01:04:05.163Z,8.48
2022-09-07T01:06:34.274Z,7.72
2022-09-07T01:09:04.467Z,7.45
2022-09-07T01:11:33.924Z,8.18
2022-09-07T01:14:01.334Z,8.13
2022-09-07T01:16:47.625Z,7.90
2022-09-07T01:19:40.007Z,7.45
2022-09-07T01:22:13.491Z,8.05
2022-09-07T01:25:09.674Z,8.00
2022-09-07T01:28:00.962Z,8.68
2022-09-07T01:30:28.648Z,9.65
2022-09-07T01:33:34.506Z,8.05
2022-09-07T01:36:19.010Z,8.60
2022-09-07T01:38:58.880Z,8.60
2022-09-07T01:41:49.688Z,9.27
2022-09-07T01:44:20.201Z,7.87
2022-09-07T01:47:12.439Z,8.88
2022-09-07T01:49:48.605Z,9.70
2022-09-07T01:54:55.415Z,10.07
2022-09-07T01:57:26.605Z,8.88
2022-09-07T01:59:58.990Z,9.32
2022-09-07T02:02:30.948Z,10.60
2022-09-07T02:05:10.550Z,8.48
2022-09-07T02:07:58.666Z,9.48
2022-09-07T02:10:35.120Z,11.32
2022-09-07T02:13:18.950Z,10.18
2022-09-07T02:15:52.313Z,11.65
2022-09-07T02:18:22.870Z,11.82
2022-09-07T02:20:52.434Z,10.52
2022-09-07T02:23:22.598Z,9.90
2022-09-07T02:25:56.310Z,12.30
2022-09-07T02:28:29.623Z,12.05
2022-09-07T02:30:57.371Z,11.50
2022-09-07T02:33:24.791Z,10.40
2022-09-07T02:35:52.208Z,10.38
2022-09-07T02:38:19.908Z,11.95
2022-09-07T02:40:52.282Z,12.32
2022-09-07T02:43:20.063Z,12.40
2022-09-07T02:46:10.689Z,9.43
2022-09-07T02:48:41.012Z,11.02
2022-09-07T02:51:11.113Z,12.10
2022-09-07T02:53:56.952Z,10.27
2022-09-07T02:56:36.418Z,13.27
2022-09-07T02:59:06.861Z,11.18
2022-09-07T03:02:01.617Z,11.07
2022-09-07T03:04:35.190Z,10.27
2022-09-07T03:07:11.214Z,11.48
2022-09-07T03:09:41.661Z,10.90
2022-09-07T03:12:09.109Z,10.80
2022-09-07T03:14:37.751Z,10.85
2022-09-07T03:17:05.418Z,9.90
2022-09-07T03:19:32.813Z,12.25
2022-09-07T03:22:00.267Z,11.50
2022-09-07T03:24:27.925Z,10.77
2022-09-07T03:26:55.356Z,10.75
2022-09-07T03:29:22.767Z,10.18
2022-09-07T03:31:50.465Z,9.63
2022-09-07T03:34:18.093Z,9.00
2022-09-07T03:36:45.532Z,9.73
2022-09-07T03:39:13.914Z,9.70
2022-09-07T03:41:41.326Z,10.10
2022-09-07T03:44:08.968Z,9.95
2022-09-07T03:46:36.686Z,11.15
2022-09-07T03:49:04.125Z,10.80
2022-09-07T03:51:31.550Z,10.73
2022-09-07T03:54:00.386Z,10.70
2022-09-07T03:56:27.837Z,9.30
2022-09-07T03:58:55.272Z,10.73
2022-09-07T04:01:24.377Z,9.00
2022-09-07T04:03:52.253Z,9.98
2022-09-07T04:06:19.783Z,9.77
2022-09-07T04:08:47.207Z,10.32
2022-09-07T04:11:17.249Z,9.95
2022-09-07T04:13:45.181Z,11.30
2022-09-07T04:16:14.408Z,11.50
2022-09-07T04:18:42.085Z,13.55
2022-09-07T04:21:09.610Z,13.02
2022-09-07T04:23:38.859Z,12.63
2022-09-07T04:26:06.492Z,14.18
2022-09-07T04:28:33.896Z,12.82
2022-09-07T04:31:04.326Z,11.45
2022-09-07T04:33:32.263Z,13.52
2022-09-07T04:36:00.952Z,11.40
2022-09-07T04:38:28.612Z,14.07
2022-09-07T04:41:10.094Z,16.02
2022-09-07T04:43:37.862Z,15.25
2022-09-07T04:46:06.748Z,11.98
2022-09-07T04:48:34.308Z,13.95
2022-09-07T04:51:08.925Z,10.55
2022-09-07T04:53:37.266Z,13.48
2022-09-07T04:56:04.879Z,14.27
2022-09-07T04:58:32.287Z,13.88
2022-09-07T05:01:04.001Z,11.12
2022-09-07T05:03:31.490Z,16.08
2022-09-07T05:06:02.544Z,10.65
2022-09-07T05:08:30.343Z,13.68
2022-09-07T05:10:57.841Z,11.45
2022-09-07T05:13:25.563Z,10.88
2022-09-07T05:15:53.231Z,13.02
2022-09-07T05:18:21.287Z,10.25
2022-09-07T05:20:48.675Z,10.85
2022-09-07T05:23:16.888Z,10.02
2022-09-07T05:25:44.923Z,10.38
2022-09-07T05:28:15.986Z,9.75
2022-09-07T05:36:22.715Z,9.90
2022-09-07T05:38:50.142Z,9.27
2022-09-07T05:41:19.552Z,9.23
2022-09-07T05:46:34.890Z,9.13
2022-09-07T05:49:03.613Z,9.02
2022-09-07T05:51:30.969Z,8.65
2022-09-07T05:53:58.660Z,8.95
2022-09-07T05:56:26.337Z,8.45
2022-09-07T05:58:53.845Z,9.45
2022-09-07T06:01:21.225Z,7.62
2022-09-07T06:03:48.924Z,9.45
2022-09-07T06:06:17.466Z,8.38
2022-09-07T06:08:49.312Z,8.60
2022-09-07T06:11:19.162Z,8.70
2022-09-07T06:13:46.689Z,9.52
2022-09-07T06:16:14.513Z,8.43
2022-09-07T06:18:43.676Z,8.00
2022-09-07T06:21:12.918Z,8.75
2022-09-07T06:23:41.021Z,8.52
2022-09-07T06:26:09.134Z,9.15
2022-09-07T06:28:41.430Z,8.48
2022-09-07T06:31:10.788Z,8.85
2022-09-07T06:33:38.353Z,8.38
2022-09-07T06:36:13.243Z,8.85
2022-09-07T06:38:41.043Z,8.90
2022-09-07T06:44:18.423Z,9.00
2022-09-07T06:49:33.595Z,9.60
2022-09-07T06:52:00.978Z,9.27
2022-09-07T06:57:16.081Z,10.23
2022-09-07T06:59:43.517Z,8.68
2022-09-07T07:02:11.492Z,8.60
2022-09-07T07:04:41.009Z,9.95
2022-09-07T07:07:12.441Z,9.00
2022-09-07T07:09:40.160Z,10.15
2022-09-07T07:12:07.625Z,9.55
2022-09-07T07:14:37.393Z,9.45
2022-09-07T07:17:07.490Z,10.02
2022-09-07T07:19:34.918Z,9.02
2022-09-07T07:22:14.446Z,10.13
2022-09-07T07:24:49.960Z,10.23
2022-09-07T07:27:17.621Z,9.45
2022-09-07T07:29:45.732Z,10.50
2022-09-07T07:32:13.427Z,9.85
2022-09-07T07:34:40.816Z,9.98
2022-09-07T07:37:08.282Z,9.30
2022-09-07T07:42:23.305Z,10.90
2022-09-07T07:47:38.445Z,10.20
2022-09-07T07:55:44.070Z,10.15
2022-09-07T07:58:13.008Z,10.57
2022-09-07T08:00:56.596Z,9.90
2022-09-07T08:03:24.957Z,9.77
2022-09-07T08:05:52.487Z,9.35
2022-09-07T08:08:20.064Z,9.57
2022-09-07T08:10:47.866Z,8.90
2022-09-07T08:13:16.118Z,9.70
2022-09-07T08:15:46.595Z,9.88
2022-09-07T08:18:15.778Z,9.20
2022-09-07T08:20:43.352Z,8.65
2022-09-07T08:23:11.796Z,10.25
2022-09-07T08:25:39.574Z,9.68
2022-09-07T08:28:06.972Z,9.70
2022-09-07T08:30:34.303Z,10.90
2022-09-07T08:33:01.958Z,9.82
2022-09-07T08:35:29.326Z,11.00
2022-09-07T08:37:56.935Z,10.50
2022-09-07T08:40:24.787Z,11.20
2022-09-07T08:43:01.237Z,9.70
2022-09-07T08:45:43.924Z,9.80
2022-09-07T08:48:14.867Z,11.45
2022-09-07T08:51:04.672Z,9.63
2022-09-07T08:53:32.181Z,9.88
2022-09-07T08:56:09.647Z,10.25
2022-09-07T08:58:50.570Z,10.57
2022-09-07T09:01:35.761Z,10.60
2022-09-07T09:04:21.095Z,10.40
2022-09-07T09:07:17.726Z,10.27
2022-09-07T09:10:01.561Z,10.35
2022-09-07T09:12:37.473Z,10.52
2022-09-07T09:17:48.177Z,11.35
2022-09-07T09:20:53.557Z,10.02
2022-09-07T09:23:24.665Z,10.65
2022-09-07T09:25:56.557Z,12.43
2022-09-07T09:28:26.458Z,11.23
2022-09-07T09:30:56.359Z,11.60
2022-09-07T09:33:27.937Z,11.85
2022-09-07T09:35:56.970Z,11.27
2022-09-07T09:38:33.917Z,12.10
2022-09-07T09:41:12.098Z,10.60
2022-09-07T09:43:51.799Z,11.65
2022-09-07T09:46:33.506Z,12.65
2022-09-07T09:49:01.805Z,11.20
2022-09-07T09:54:19.245Z,11.55
2022-09-07T09:56:47.177Z,11.25
2022-09-07T10:05:40.981Z,11.85
2022-09-07T10:08:31.386Z,11.10
2022-09-07T10:11:00.715Z,11.05
2022-09-07T10:14:07.085Z,11.20
2022-09-07T10:16:44.288Z,11.45
2022-09-07T10:19:47.136Z,10.45
2022-09-07T10:22:35.134Z,11.10
2022-09-07T10:25:04.558Z,10.38
2022-09-07T10:27:35.633Z,10.23
2022-09-07T10:30:10.009Z,11.35
2022-09-07T10:32:46.632Z,11.52
2022-09-07T10:35:31.841Z,10.98
2022-09-07T10:38:11.690Z,11.82
2022-09-07T10:40:42.885Z,12.43
2022-09-07T10:43:23.790Z,12.00
2022-09-07T10:49:32.539Z,13.50
2022-09-07T10:52:05.001Z,13.23
2022-09-07T10:54:56.467Z,14.02
2022-09-07T10:57:33.277Z,15.35
2022-09-07T11:00:13.930Z,15.15
2022-09-07T11:03:26.923Z,15.77
2022-09-07T11:06:13.005Z,16.62
2022-09-07T11:12:03.643Z,19.95
2022-09-07T11:14:36.593Z,20.92
2022-09-07T11:17:08.632Z,18.08
2022-09-07T11:19:50.425Z,19.37
2022-09-07T11:22:34.398Z,18.70
2022-09-07T11:25:38.044Z,19.73
2022-09-07T11:28:17.926Z,20.60
2022-09-07T11:30:48.108Z,18.50
2022-09-07T11:33:32.094Z,19.15
2022-09-07T11:36:02.338Z,20.27
2022-09-07T11:38:57.386Z,20.30
2022-09-07T11:41:29.626Z,20.60
2022-09-07T11:44:21.806Z,19.45
2022-09-07T11:46:51.346Z,20.23
2022-09-07T11:49:25.977Z,18.75
2022-09-07T11:52:05.078Z,22.45
2022-09-07T11:54:35.824Z,21.40
2022-09-07T11:57:15.399Z,22.08
2022-09-07T12:00:12.085Z,22.10
2022-09-07T12:03:02.076Z,21.33
2022-09-07T12:05:51.328Z,21.25
2022-09-07T12:08:54.053Z,20.45
2022-09-07T12:11:40.259Z,20.60
2022-09-07T12:14:17.053Z,20.50
2022-09-07T12:17:01.974Z,19.05
2022-09-07T12:19:29.718Z,19.85
2022-09-07T12:21:57.954Z,19.90
2022-09-07T12:24:35.193Z,19.85
2022-09-07T12:27:21.970Z,19.50
2022-09-07T12:29:59.528Z,20.17
2022-09-07T12:32:57.981Z,19.45
2022-09-07T12:35:28.711Z,19.50
2022-09-07T12:38:03.033Z,20.77
2022-09-07T12:40:37.201Z,20.75
2022-09-07T12:43:14.070Z,20.05
2022-09-07T12:45:41.981Z,20.02
2022-09-07T12:48:15.586Z,20.08
2022-09-07T12:51:02.862Z,18.90
2022-09-07T12:53:30.958Z,19.62
2022-09-07T12:56:17.228Z,19.95
2022-09-07T12:58:45.072Z,20.05
2022-09-07T13:01:21.770Z,20.92
2022-09-07T13:04:12.886Z,20.73
2022-09-07T13:07:06.656Z,20.55
2022-09-07T13:09:40.192Z,21.02
2022-09-07T13:15:44.906Z,20.88
2022-09-07T13:18:35.222Z,19.37
2022-09-07T13:21:08.885Z,19.00
2022-09-07T13:23:37.829Z,17.98
2022-09-07T13:26:09.780Z,16.48
2022-09-07T13:28:56.225Z,17.33
2022-09-07T13:31:45.150Z,17.05
2022-09-07T13:34:34.124Z,16.75
2022-09-07T13:37:02.577Z,16.87
2022-09-07T13:39:30.111Z,17.33
2022-09-07T13:41:58.326Z,15.10
2022-09-07T13:44:30.073Z,15.32
2022-09-07T13:47:13.551Z,15.60
2022-09-07T13:49:47.258Z,16.73
2022-09-07T13:52:19.413Z,17.48
2022-09-07T13:55:17.755Z,16.73
2022-09-07T13:58:04.647Z,16.62
2022-09-07T14:00:32.928Z,17.90
2022-09-07T14:03:05.566Z,17.50
2022-09-07T14:05:33.232Z,17.85
2022-09-07T14:08:00.842Z,17.83
2022-09-07T14:10:29.235Z,18.10
2022-09-07T14:13:11.707Z,17.77
2022-09-07T14:15:41.654Z,17.77
2022-09-07T14:18:13.486Z,18.15
2022-09-07T14:20:51.771Z,19.25
2022-09-07T14:23:24.951Z,18.77
2022-09-07T14:26:18.791Z,18.17
2022-09-07T14:28:47.928Z,18.75
2022-09-07T14:31:17.144Z,19.55
2022-09-07T14:33:58.222Z,19.35
2022-09-07T14:36:48.478Z,17.95
2022-09-07T14:39:16.759Z,17.45
2022-09-07T14:41:44.594Z,18.02
2022-09-07T14:44:33.712Z,19.33
2022-09-07T14:47:11.661Z,18.17
2022-09-07T14:49:38.977Z,18.73
2022-09-07T14:52:06.582Z,17.60
2022-09-07T14:54:34.209Z,18.45
2022-09-07T14:57:06.422Z,17.98
2022-09-07T14:59:41.294Z,17.95
2022-09-07T15:02:24.086Z,19.17
2022-09-07T15:05:18.392Z,18.85
2022-09-07T15:07:47.680Z,19.87
2022-09-07T15:10:21.286Z,19.73
2022-09-07T15:12:49.275Z,20.95
2022-09-07T15:15:27.882Z,20.70
2022-09-07T15:17:58.977Z,20.27
2022-09-07T15:20:38.411Z,20.77
2022-09-07T15:23:16.656Z,19.65
2022-09-07T15:25:50.517Z,19.10
2022-09-07T15:34:10.283Z,21.17
2022-09-07T15:36:40.343Z,22.00
2022-09-07T15:39:08.778Z,21.95
2022-09-07T15:41:36.207Z,21.60
2022-09-07T15:44:03.906Z,21.35
2022-09-07T15:46:32.438Z,23.60
2022-09-07T15:49:01.687Z,23.50
2022-09-07T15:54:16.776Z,20.98
2022-09-07T15:57:48.083Z,20.58
2022-09-07T15:59:31.778Z,20.98
2022-09-07T16:01:59.578Z,20.17
2022-09-07T16:04:27.604Z,21.40
2022-09-07T16:06:55.041Z,20.30
2022-09-07T16:09:22.705Z,20.58
2022-09-07T16:11:52.083Z,20.45
2022-09-07T16:14:19.471Z,21.83
2022-09-07T16:19:36.135Z,20.08
2022-09-07T16:22:03.763Z,20.48
2022-09-07T16:24:31.156Z,19.65
2022-09-07T16:27:00.896Z,20.25
2022-09-07T16:29:29.368Z,21.08
2022-09-07T16:34:44.958Z,19.55
2022-09-07T16:37:12.425Z,19.27
2022-09-07T16:39:41.836Z,19.92
2022-09-07T16:42:09.788Z,20.35
2022-09-07T16:44:38.400Z,21.75
2022-09-07T16:47:07.997Z,20.90
2022-09-07T16:49:35.841Z,20.40
2022-09-07T16:52:05.241Z,18.83
2022-09-07T16:54:32.730Z,20.00
2022-09-07T16:57:00.357Z,18.15
2022-09-07T16:59:27.788Z,17.98
2022-09-07T17:01:55.393Z,18.75
2022-09-07T17:04:23.393Z,19.25
2022-09-07T17:06:52.521Z,23.45
2022-09-07T17:09:20.576Z,33.38
2022-09-07T17:11:48.394Z,38.70
2022-09-07T17:14:15.745Z,34.58
2022-09-07T17:16:43.208Z,30.02
2022-09-07T17:22:00.713Z,28.65
2022-09-07T17:24:28.471Z,26.12
2022-09-07T17:26:55.829Z,25.60
2022-09-07T17:29:23.189Z,20.73
2022-09-07T17:34:38.426Z,23.50
2022-09-07T17:37:06.172Z,23.12
2022-09-07T17:39:33.842Z,19.80
2022-09-07T17:42:01.335Z,19.40
2022-09-07T17:44:33.238Z,19.45
2022-09-07T17:47:03.298Z,21.50
2022-09-07T17:49:30.930Z,20.67
2022-09-07T17:51:59.925Z,21.23
2022-09-07T17:54:27.516Z,22.23
2022-09-07T17:56:55.106Z,22.98
2022-09-07T18:02:12.453Z,22.23
2022-09-07T18:04:40.168Z,21.98
2022-09-07T18:07:07.730Z,22.00
2022-09-07T18:09:35.360Z,23.02
2022-09-07T18:12:03.333Z,23.62
2022-09-07T18:14:31.027Z,22.73
2022-09-07T18:16:58.500Z,21.87
2022-09-07T18:19:26.541Z,24.02
2022-09-07T18:21:54.149Z,23.77
2022-09-07T18:24:23.521Z,25.08
2022-09-07T18:26:52.750Z,24.40
2022-09-07T18:29:32.518Z,24.23
2022-09-07T18:32:04.790Z,23.58
2022-09-07T18:34:35.021Z,24.15
2022-09-07T18:37:04.600Z,22.42
2022-09-07T18:39:33.713Z,23.85
2022-09-07T18:42:01.129Z,25.37
2022-09-07T18:47:23.232Z,25.25
2022-09-07T18:49:55.506Z,24.92
2022-09-07T18:55:13.642Z,23.20
2022-09-07T18:57:41.414Z,23.92
2022-09-07T19:00:10.667Z,25.10
2022-09-07T19:02:38.502Z,24.40
2022-09-07T19:08:03.592Z,26.15
2022-09-07T19:10:37.383Z,26.50
2022-09-07T19:13:05.107Z,25.90
2022-09-07T19:15:37.486Z,26.10
2022-09-07T19:18:06.717Z,23.62
2022-09-07T19:20:34.837Z,25.25
2022-09-07T19:23:03.515Z,25.15
2022-09-07T19:25:31.186Z,25.12
2022-09-07T19:27:59.423Z,25.58
2022-09-07T19:30:28.007Z,26.00
2022-09-07T19:32:55.634Z,26.90
2022-09-07T19:35:23.093Z,26.23
2022-09-07T19:37:50.518Z,26.35
2022-09-07T19:40:19.426Z,24.27
2022-09-07T19:42:46.957Z,25.45
2022-09-07T19:45:15.790Z,23.98
2022-09-07T19:47:43.838Z,24.42
2022-09-07T19:50:11.170Z,23.52
2022-09-07T19:52:38.493Z,24.35
2022-09-07T19:55:06.748Z,24.17
2022-09-07T19:57:34.210Z,24.30
2022-09-07T20:00:02.976Z,23.58
2022-09-07T20:02:39.594Z,22.17
2022-09-07T20:05:07.821Z,23.30
2022-09-07T20:07:36.218Z,24.67
2022-09-07T20:10:03.576Z,23.95
2022-09-07T20:12:31.161Z,24.02
2022-09-07T20:14:58.514Z,23.08
2022-09-07T20:17:25.869Z,25.12
2022-09-07T20:19:53.440Z,24.37
2022-09-07T20:22:20.761Z,25.12
2022-09-07T20:24:48.087Z,24.42
2022-09-07T20:27:15.745Z,23.60
2022-09-07T20:29:43.073Z,24.35
2022-09-07T20:32:10.670Z,25.17
2022-09-07T20:34:38.369Z,24.77
2022-09-07T20:37:05.711Z,23.58
2022-09-07T20:39:38.399Z,23.58
2022-09-07T20:42:07.743Z,24.27
2022-09-07T20:44:35.089Z,21.75
2022-09-07T20:47:02.785Z,23.90
2022-09-07T20:49:30.413Z,21.17
2022-09-07T20:51:57.754Z,20.95
2022-09-07T20:54:25.116Z,20.40
2022-09-07T20:56:52.720Z,19.67
2022-09-07T20:59:20.127Z,20.00
2022-09-07T21:01:47.545Z,20.48
2022-09-07T21:04:15.166Z,20.50
2022-09-07T21:06:42.486Z,22.23
2022-09-07T21:09:10.598Z,21.95
2022-09-07T21:11:38.624Z,22.70
2022-09-07T21:14:07.752Z,22.08
2022-09-07T21:16:35.612Z,20.90
2022-09-07T21:19:04.897Z,21.55
2022-09-07T21:21:38.355Z,21.98
2022-09-07T21:24:07.488Z,22.37
2022-09-07T21:26:34.993Z,21.02
2022-09-07T21:29:03.788Z,21.25
2022-09-07T21:31:31.918Z,19.10
2022-09-07T21:34:00.476Z,19.85
2022-09-07T21:36:27.947Z,20.08
2022-09-07T21:38:55.882Z,18.52
2022-09-07T21:41:23.805Z,18.83
2022-09-07T21:43:58.082Z,17.92
2022-09-07T21:46:26.046Z,18.98
2022-09-07T21:48:54.805Z,19.40
2022-09-07T21:51:22.341Z,18.95
2022-09-07T21:53:57.172Z,19.48
2022-09-07T21:56:24.762Z,18.87
2022-09-07T21:58:59.142Z,20.08
2022-09-07T22:01:27.052Z,19.50
2022-09-07T22:03:59.386Z,18.80
2022-09-07T22:06:27.848Z,18.77
2022-09-07T22:08:55.836Z,20.40
2022-09-07T22:11:23.712Z,18.10
2022-09-07T22:13:54.505Z,18.15
2022-09-07T22:16:22.212Z,20.95
2022-09-07T22:18:49.706Z,19.52
2022-09-07T22:21:19.211Z,19.40
2022-09-07T22:23:48.670Z,18.85
2022-09-07T22:26:20.060Z,20.33
2022-09-07T22:28:47.745Z,20.60
2022-09-07T22:31:17.058Z,21.90
2022-09-07T22:33:44.859Z,20.88
2022-09-07T22:36:22.355Z,20.30
2022-09-07T22:38:51.852Z,20.58
2022-09-07T22:41:20.962Z,19.17
2022-09-07T22:43:50.688Z,20.33
2022-09-07T22:46:19.270Z,18.35
2022-09-07T22:48:46.943Z,17.67
2022-09-07T22:51:14.303Z,18.37
2022-09-07T22:53:42.353Z,17.48
2022-09-07T22:56:14.546Z,18.35
2022-09-07T22:58:45.814Z,17.65
2022-09-07T23:01:13.426Z,17.55
2022-09-07T23:03:40.827Z,16.50
2022-09-07T23:06:08.700Z,17.02
2022-09-07T23:08:36.466Z,18.40
2022-09-07T23:11:05.085Z,15.30
2022-09-07T23:13:33.202Z,16.77
2022-09-07T23:16:06.045Z,16.35
2022-09-07T23:18:33.937Z,15.30
2022-09-07T23:21:01.805Z,16.23
2022-09-07T23:23:29.478Z,16.42
2022-09-07T23:25:56.872Z,16.55
2022-09-07T23:28:24.486Z,16.55
2022-09-07T23:30:51.840Z,15.73
2022-09-07T23:33:19.191Z,15.32
2022-09-07T23:35:56.630Z,16.30
2022-09-07T23:38:25.042Z,17.08
2022-09-07T23:40:53.657Z,16.17
2022-09-07T23:43:21.864Z,15.70
2022-09-07T23:45:49.344Z,16.85
2022-09-07T23:48:16.925Z,16.85
2022-09-07T23:50:44.920Z,15.27
2022-09-07T23:53:12.376Z,17.08
2022-09-07T23:55:40.013Z,15.73
2022-09-07T23:58:07.899Z,16.20
